createdAt,value
2018-12-13T00:00:25.837Z,1.20
2018-12-13T00:02:54.334Z,1.20
2018-12-13T00:05:22.862Z,1.30
2018-12-13T00:07:51.335Z,1.20
2018-12-13T00:10:19.840Z,1.30
2018-12-13T00:12:48.302Z,1.30
2018-12-13T00:15:19.165Z,1.10
2018-12-13T00:17:47.622Z,1.10
2018-12-13T00:20:16.070Z,1.10
2018-12-13T00:22:44.636Z,1.00
2018-12-13T00:25:13.131Z,1.00
2018-12-13T00:27:43.312Z,1.00
2018-12-13T00:30:14.227Z,1.00
2018-12-13T00:32:43.435Z,1.00
2018-12-13T00:35:12.757Z,1.10
2018-12-13T00:37:41.477Z,1.00
2018-12-13T00:40:11.152Z,1.00
2018-12-13T00:42:39.632Z,1.10
2018-12-13T00:45:08.233Z,1.10
2018-12-13T00:47:36.710Z,1.10
2018-12-13T00:50:05.279Z,1.00
2018-12-13T00:52:33.796Z,1.00
2018-12-13T00:55:02.264Z,1.10
2018-12-13T00:57:30.782Z,1.20
2018-12-13T00:59:59.387Z,1.10
2018-12-13T01:02:27.852Z,1.10
2018-12-13T01:04:56.328Z,1.10
2018-12-13T01:07:24.824Z,1.00
2018-12-13T01:09:53.287Z,0.90
2018-12-13T01:12:21.777Z,1.00
2018-12-13T01:14:50.301Z,0.90
2018-12-13T01:17:18.775Z,1.00
2018-12-13T01:19:47.413Z,0.90
2018-12-13T01:22:15.917Z,0.90
2018-12-13T01:24:44.426Z,1.00
2018-12-13T01:27:12.888Z,1.00
2018-12-13T01:29:41.375Z,1.10
2018-12-13T01:32:09.836Z,1.10
2018-12-13T01:34:38.326Z,1.00
2018-12-13T01:37:06.851Z,0.90
2018-12-13T01:39:35.317Z,0.80
2018-12-13T01:42:03.782Z,0.80
2018-12-13T01:44:32.280Z,0.90
2018-12-13T01:47:00.746Z,0.90
2018-12-13T01:49:29.221Z,0.90
2018-12-13T01:51:57.748Z,0.90
2018-12-13T01:54:26.263Z,0.90
2018-12-13T01:56:54.744Z,0.90
2018-12-13T01:59:23.253Z,0.80
2018-12-13T02:01:51.705Z,1.00
2018-12-13T02:04:20.211Z,1.10
2018-12-13T02:06:48.743Z,1.00
2018-12-13T02:09:17.247Z,1.10
2018-12-13T02:11:45.719Z,0.80
2018-12-13T02:14:14.258Z,0.80
2018-12-13T02:16:43.735Z,0.80
2018-12-13T02:19:12.255Z,0.70
2018-12-13T02:21:40.742Z,0.70
2018-12-13T02:24:09.247Z,0.70
2018-12-13T02:26:37.797Z,0.80
2018-12-13T02:29:08.202Z,0.80
2018-12-13T02:31:36.795Z,0.80
2018-12-13T02:34:05.635Z,0.80
2018-12-13T02:36:34.140Z,0.90
2018-12-13T02:39:02.756Z,1.00
2018-12-13T02:41:31.287Z,1.00
2018-12-13T02:43:59.888Z,0.90
2018-12-13T02:46:28.391Z,0.90
2018-12-13T02:49:06.732Z,0.90
2018-12-13T02:51:35.328Z,0.90
2018-12-13T02:54:03.936Z,1.00
2018-12-13T02:56:32.537Z,1.00
2018-12-13T02:59:00.996Z,0.80
2018-12-13T03:01:29.487Z,0.80
2018-12-13T03:03:57.976Z,0.80
2018-12-13T03:06:26.549Z,0.80
2018-12-13T03:08:54.980Z,0.80
2018-12-13T03:11:24.342Z,0.80
2018-12-13T03:13:52.839Z,0.80
2018-12-13T03:16:21.417Z,0.90
2018-12-13T03:18:49.916Z,0.80
2018-12-13T03:21:18.402Z,0.80
2018-12-13T03:23:46.866Z,0.80
2018-12-13T03:26:15.398Z,0.90
2018-12-13T03:28:43.975Z,1.00
2018-12-13T03:31:12.466Z,0.90
2018-12-13T03:33:40.984Z,0.90
2018-12-13T03:36:09.563Z,1.00
2018-12-13T03:38:38.058Z,1.00
2018-12-13T03:41:06.731Z,1.00
2018-12-13T03:43:35.222Z,0.90
2018-12-13T03:46:03.685Z,0.90
2018-12-13T03:48:32.183Z,1.00
2018-12-13T03:51:00.716Z,1.00
2018-12-13T03:53:29.177Z,1.00
2018-12-13T03:55:57.673Z,0.90
2018-12-13T03:58:26.128Z,0.80
2018-12-13T04:00:54.650Z,0.80
2018-12-13T04:03:23.111Z,0.80
2018-12-13T04:05:51.600Z,0.80
2018-12-13T04:08:20.153Z,0.80
2018-12-13T04:10:48.660Z,0.80
2018-12-13T04:13:17.132Z,0.80
2018-12-13T04:15:45.713Z,0.70
2018-12-13T04:18:14.231Z,0.70
2018-12-13T04:20:42.841Z,0.70
2018-12-13T04:23:11.417Z,0.70
2018-12-13T04:25:39.889Z,0.70
2018-12-13T04:28:08.391Z,0.70
2018-12-13T04:30:36.864Z,0.70
2018-12-13T04:33:05.526Z,0.70
2018-12-13T04:35:33.991Z,0.70
2018-12-13T04:38:02.548Z,0.70
2018-12-13T04:40:34.012Z,0.70
2018-12-13T04:43:02.502Z,0.70
2018-12-13T04:45:34.050Z,0.80
2018-12-13T04:48:02.532Z,0.70
2018-12-13T04:50:31.068Z,0.60
2018-12-13T04:52:59.583Z,0.60
2018-12-13T04:55:28.068Z,0.60
2018-12-13T04:57:56.620Z,0.60
2018-12-13T05:00:25.284Z,0.60
2018-12-13T05:02:53.773Z,0.80
2018-12-13T05:05:22.299Z,0.80
2018-12-13T05:07:50.805Z,0.80
2018-12-13T05:10:30.540Z,0.70
2018-12-13T05:12:59.057Z,0.70
2018-12-13T05:15:34.009Z,0.70
2018-12-13T05:18:02.528Z,0.80
2018-12-13T05:20:31.008Z,0.80
2018-12-13T05:22:59.472Z,0.90
2018-12-13T05:25:28.038Z,0.90
2018-12-13T05:27:56.559Z,0.90
2018-12-13T05:30:25.064Z,0.80
2018-12-13T05:32:53.560Z,0.90
2018-12-13T05:35:22.065Z,0.80
2018-12-13T05:37:50.600Z,0.80
2018-12-13T05:40:19.071Z,0.80
2018-12-13T05:42:47.565Z,0.70
2018-12-13T05:45:16.661Z,0.80
2018-12-13T05:47:45.179Z,0.80
2018-12-13T05:50:13.803Z,0.90
2018-12-13T05:52:42.329Z,0.90
2018-12-13T05:55:10.856Z,1.10
2018-12-13T05:57:39.427Z,1.00
2018-12-13T06:00:09.638Z,0.90
2018-12-13T06:02:38.170Z,0.80
2018-12-13T06:05:07.326Z,0.90
2018-12-13T06:07:35.938Z,0.90
2018-12-13T06:10:05.304Z,0.90
2018-12-13T06:12:34.542Z,0.90
2018-12-13T06:15:03.040Z,0.90
2018-12-13T06:17:31.653Z,0.80
2018-12-13T06:20:06.994Z,0.70
2018-12-13T06:22:35.476Z,0.70
2018-12-13T06:25:04.317Z,0.70
2018-12-13T06:27:32.938Z,0.70
2018-12-13T06:30:07.262Z,0.70
2018-12-13T06:32:32.021Z,0.70
2018-12-13T06:35:00.501Z,0.60
2018-12-13T06:37:28.967Z,0.70
2018-12-13T06:39:57.489Z,0.80
2018-12-13T06:42:25.963Z,0.70
2018-12-13T06:44:54.481Z,0.60
2018-12-13T06:47:23.032Z,0.60
2018-12-13T06:49:51.508Z,0.60
2018-12-13T06:52:20.082Z,0.50
2018-12-13T06:54:48.602Z,0.60
2018-12-13T06:57:17.179Z,0.60
2018-12-13T06:59:45.722Z,0.60
2018-12-13T07:02:14.198Z,0.60
2018-12-13T07:04:42.674Z,0.70
2018-12-13T07:07:11.129Z,0.80
2018-12-13T07:09:39.600Z,0.80
2018-12-13T07:12:08.098Z,0.90
2018-12-13T07:14:36.552Z,0.90
2018-12-13T07:17:05.088Z,0.90
2018-12-13T07:19:33.612Z,0.90
2018-12-13T07:22:02.082Z,0.90
2018-12-13T07:24:30.609Z,0.80
2018-12-13T07:26:59.093Z,0.90
2018-12-13T07:29:27.568Z,0.80
2018-12-13T07:31:56.097Z,0.80
2018-12-13T07:34:24.579Z,0.80
2018-12-13T07:36:53.152Z,0.80
2018-12-13T07:39:21.693Z,0.90
2018-12-13T07:41:50.173Z,0.90
2018-12-13T07:44:18.645Z,0.90
2018-12-13T07:46:47.197Z,0.90
2018-12-13T07:49:15.677Z,0.90
2018-12-13T07:51:44.164Z,1.00
2018-12-13T07:54:12.760Z,1.10
2018-12-13T07:56:41.243Z,1.10
2018-12-13T07:59:09.732Z,0.90
2018-12-13T08:01:38.238Z,0.90
2018-12-13T08:04:06.754Z,1.00
2018-12-13T08:06:35.234Z,1.00
2018-12-13T08:09:05.441Z,1.10
2018-12-13T08:11:33.970Z,1.00
2018-12-13T08:14:02.458Z,0.90
2018-12-13T08:16:30.984Z,0.90
2018-12-13T08:18:59.592Z,1.20
2018-12-13T08:21:28.091Z,1.20
2018-12-13T08:23:56.573Z,1.00
2018-12-13T08:26:25.072Z,1.00
2018-12-13T08:28:53.561Z,1.00
2018-12-13T08:31:22.123Z,1.20
2018-12-13T08:33:50.593Z,1.20
2018-12-13T08:36:19.081Z,1.20
2018-12-13T08:38:47.585Z,1.10
2018-12-13T08:41:16.181Z,1.20
2018-12-13T08:43:44.669Z,1.40
2018-12-13T08:46:13.182Z,1.30
2018-12-13T08:48:41.625Z,1.40
2018-12-13T08:51:10.100Z,1.30
2018-12-13T08:53:38.635Z,1.10
2018-12-13T08:56:07.102Z,1.00
2018-12-13T08:58:35.568Z,1.20
2018-12-13T09:01:04.148Z,1.20
2018-12-13T09:03:32.638Z,1.30
2018-12-13T09:06:01.127Z,1.20
2018-12-13T09:08:33.597Z,1.10
2018-12-13T09:11:00.287Z,1.20
2018-12-13T09:13:28.869Z,1.20
2018-12-13T09:15:57.334Z,1.10
2018-12-13T09:18:25.801Z,1.30
2018-12-13T09:20:54.335Z,1.20
2018-12-13T09:23:22.833Z,1.30
2018-12-13T09:25:51.459Z,1.30
2018-12-13T09:28:20.090Z,1.30
2018-12-13T09:30:49.625Z,1.30
2018-12-13T09:33:18.191Z,1.40
2018-12-13T09:35:46.678Z,1.40
2018-12-13T09:38:15.158Z,1.40
2018-12-13T09:40:43.644Z,1.40
2018-12-13T09:43:12.207Z,1.40
2018-12-13T09:45:40.686Z,1.50
2018-12-13T09:48:09.193Z,1.50
2018-12-13T09:50:37.699Z,1.50
2018-12-13T09:53:06.194Z,1.70
2018-12-13T09:55:34.653Z,1.60
2018-12-13T09:58:03.354Z,1.70
2018-12-13T10:00:31.846Z,1.70
2018-12-13T10:03:00.396Z,1.70
2018-12-13T10:05:28.938Z,1.70
2018-12-13T10:07:57.390Z,1.80
2018-12-13T10:10:25.865Z,1.90
2018-12-13T10:12:54.401Z,1.90
2018-12-13T10:15:22.906Z,1.70
2018-12-13T10:17:51.382Z,1.70
2018-12-13T10:20:19.886Z,1.70
2018-12-13T10:22:48.330Z,1.70
2018-12-13T10:25:16.995Z,1.70
2018-12-13T10:27:45.514Z,1.90
2018-12-13T10:30:14.111Z,1.90
2018-12-13T10:32:42.597Z,1.90
2018-12-13T10:35:22.384Z,2.10
2018-12-13T10:37:56.460Z,2.20
2018-12-13T10:40:30.701Z,2.20
2018-12-13T10:42:59.177Z,2.30
2018-12-13T10:45:39.088Z,2.30
2018-12-13T10:48:13.138Z,2.30
2018-12-13T10:50:47.391Z,2.30
2018-12-13T10:53:15.869Z,2.10
2018-12-13T10:55:50.038Z,2.10
2018-12-13T10:58:24.044Z,2.10
2018-12-13T11:01:03.362Z,2.20
2018-12-13T11:03:37.693Z,2.30
2018-12-13T11:06:11.779Z,2.40
2018-12-13T11:08:40.243Z,2.40
2018-12-13T11:11:08.723Z,2.60
2018-12-13T11:13:37.210Z,2.60
2018-12-13T11:16:05.675Z,2.60
2018-12-13T11:18:34.181Z,2.40
2018-12-13T11:21:02.738Z,2.20
2018-12-13T11:23:36.946Z,2.30
2018-12-13T11:26:11.117Z,2.20
2018-12-13T11:28:49.789Z,2.20
2018-12-13T11:31:24.062Z,2.20
2018-12-13T11:33:52.552Z,2.30
2018-12-13T11:36:32.496Z,2.30
2018-12-13T11:39:06.689Z,2.30
2018-12-13T11:41:46.436Z,2.30
2018-12-13T11:44:20.474Z,2.40
2018-12-13T11:46:54.512Z,2.40
2018-12-13T11:49:22.977Z,2.30
2018-12-13T11:51:51.483Z,2.50
2018-12-13T11:54:30.406Z,2.60
2018-12-13T11:57:04.589Z,2.80
2018-12-13T11:59:38.718Z,2.90
2018-12-13T12:02:07.190Z,2.80
2018-12-13T12:04:35.830Z,2.90
2018-12-13T12:07:09.801Z,2.80
2018-12-13T12:09:38.289Z,2.90
2018-12-13T12:12:12.256Z,2.90
2018-12-13T12:14:46.297Z,2.70
2018-12-13T12:17:20.392Z,2.90
2018-12-13T12:19:54.503Z,2.90
2018-12-13T12:22:28.531Z,3.00
2018-12-13T12:24:57.054Z,2.90
2018-12-13T12:27:36.933Z,3.00
2018-12-13T12:30:11.583Z,2.90
2018-12-13T12:32:45.758Z,2.90
2018-12-13T12:35:25.613Z,3.00
2018-12-13T12:37:59.671Z,3.00
2018-12-13T12:40:33.629Z,3.10
2018-12-13T12:43:02.230Z,2.90
2018-12-13T12:45:36.396Z,2.80
2018-12-13T12:48:04.925Z,2.70
2018-12-13T12:50:33.454Z,2.60
2018-12-13T12:53:07.497Z,2.60
2018-12-13T12:55:41.566Z,2.60
2018-12-13T12:58:10.153Z,2.90
2018-12-13T13:00:38.681Z,2.70
2018-12-13T13:03:07.341Z,2.60
2018-12-13T13:05:36.225Z,2.80
2018-12-13T13:08:04.858Z,3.00
2018-12-13T13:10:33.372Z,2.90
2018-12-13T13:13:01.871Z,2.80
2018-12-13T13:15:30.419Z,2.70
2018-12-13T13:17:58.901Z,2.60
2018-12-13T13:20:27.479Z,2.60
2018-12-13T13:22:55.947Z,2.80
2018-12-13T13:25:24.446Z,2.80
2018-12-13T13:27:52.941Z,2.80
2018-12-13T13:30:21.457Z,2.70
2018-12-13T13:32:49.991Z,2.70
2018-12-13T13:35:18.481Z,2.70
2018-12-13T13:37:46.962Z,2.70
2018-12-13T13:40:15.450Z,2.60
2018-12-13T13:42:43.938Z,2.70
2018-12-13T13:45:12.448Z,2.70
2018-12-13T13:47:40.914Z,2.60
2018-12-13T13:50:09.416Z,2.60
2018-12-13T13:52:38.749Z,2.70
2018-12-13T13:55:07.355Z,2.60
2018-12-13T13:57:35.926Z,2.60
2018-12-13T14:00:05.691Z,2.50
2018-12-13T14:02:34.205Z,2.50
2018-12-13T14:05:02.849Z,2.40
2018-12-13T14:07:31.305Z,2.40
2018-12-13T14:09:59.768Z,2.40
2018-12-13T14:12:28.349Z,2.50
2018-12-13T14:14:56.797Z,2.50
2018-12-13T14:17:25.361Z,2.40
2018-12-13T14:19:53.853Z,2.30
2018-12-13T14:25:43.714Z,2.30
2018-12-13T14:28:12.218Z,2.10
2018-12-13T14:30:40.792Z,2.00
2018-12-13T14:33:09.334Z,2.00
2018-12-13T14:35:37.807Z,2.10
2018-12-13T14:38:06.402Z,2.10
2018-12-13T14:40:34.926Z,2.20
2018-12-13T14:43:03.546Z,2.20
2018-12-13T14:45:32.103Z,2.10
2018-12-13T14:48:00.574Z,2.20
2018-12-13T14:50:29.110Z,2.20
2018-12-13T14:52:57.760Z,2.10
2018-12-13T14:55:26.296Z,2.10
2018-12-13T14:57:54.894Z,2.10
2018-12-13T15:00:23.405Z,2.20
2018-12-13T15:02:51.941Z,2.10
2018-12-13T15:05:20.958Z,2.20
2018-12-13T15:07:49.585Z,2.10
2018-12-13T15:10:18.112Z,2.20
2018-12-13T15:12:46.635Z,2.10
2018-12-13T15:15:15.197Z,2.10
2018-12-13T15:17:44.012Z,2.10
2018-12-13T15:20:12.531Z,2.10
2018-12-13T15:22:41.169Z,2.10
2018-12-13T15:25:09.713Z,2.10
2018-12-13T15:27:38.586Z,2.10
2018-12-13T15:30:07.780Z,2.10
2018-12-13T15:32:36.397Z,2.20
2018-12-13T15:35:05.438Z,2.40
2018-12-13T15:37:33.998Z,2.30
2018-12-13T15:40:02.588Z,2.30
2018-12-13T15:42:37.849Z,2.20
2018-12-13T15:45:07.866Z,2.10
2018-12-13T15:47:36.517Z,2.10
2018-12-13T15:50:05.741Z,2.20
2018-12-13T15:52:34.410Z,2.20
2018-12-13T15:55:03.086Z,2.20
2018-12-13T15:57:31.732Z,2.20
2018-12-13T16:00:00.245Z,2.10
2018-12-13T16:02:28.839Z,2.20
2018-12-13T16:04:57.378Z,2.20
2018-12-13T16:07:25.858Z,2.10
2018-12-13T16:09:54.397Z,2.20
2018-12-13T16:12:23.149Z,2.20
2018-12-13T16:14:51.759Z,2.20
2018-12-13T16:17:20.296Z,2.10
2018-12-13T16:19:48.945Z,2.20
2018-12-13T16:22:17.482Z,2.20
2018-12-13T16:24:46.018Z,2.10
2018-12-13T16:27:14.747Z,2.10
2018-12-13T16:29:44.370Z,2.10
2018-12-13T16:32:13.008Z,2.10
2018-12-13T16:34:41.588Z,2.20
2018-12-13T16:37:10.169Z,2.30
2018-12-13T16:39:38.743Z,2.10
2018-12-13T16:42:07.351Z,2.20
2018-12-13T16:44:35.955Z,2.30
2018-12-13T16:47:04.473Z,2.20
2018-12-13T16:49:33.075Z,2.20
2018-12-13T16:52:02.686Z,2.20
2018-12-13T16:54:31.258Z,2.10
2018-12-13T16:56:59.845Z,2.00
2018-12-13T16:59:28.454Z,2.00
2018-12-13T17:01:57.018Z,1.90
2018-12-13T17:04:25.594Z,2.00
2018-12-13T17:06:56.053Z,1.90
2018-12-13T17:09:24.906Z,2.00
2018-12-13T17:11:53.614Z,2.10
2018-12-13T17:14:22.132Z,2.10
2018-12-13T17:16:51.683Z,2.00
2018-12-13T17:19:20.498Z,2.00
2018-12-13T17:21:49.614Z,2.10
2018-12-13T17:24:23.383Z,2.00
2018-12-13T17:26:55.116Z,2.00
2018-12-13T17:29:25.620Z,2.00
2018-12-13T17:31:55.574Z,2.00
2018-12-13T17:34:27.510Z,1.90
2018-12-13T17:36:56.357Z,2.00
2018-12-13T17:39:24.992Z,2.00
2018-12-13T17:41:53.630Z,2.20
2018-12-13T17:44:22.208Z,2.10
2018-12-13T17:46:50.851Z,2.00
2018-12-13T17:49:19.558Z,2.00
2018-12-13T17:51:48.052Z,2.10
2018-12-13T17:54:16.580Z,2.10
2018-12-13T17:56:45.240Z,2.00
2018-12-13T17:59:14.512Z,2.00
2018-12-13T18:01:43.266Z,2.10
2018-12-13T18:04:11.913Z,2.00
2018-12-13T18:06:40.720Z,2.00
2018-12-13T18:09:11.491Z,1.90
2018-12-13T18:11:45.848Z,2.00
2018-12-13T18:14:15.453Z,2.00
2018-12-13T18:16:53.402Z,2.00
2018-12-13T18:19:27.302Z,2.00
2018-12-13T18:21:57.202Z,2.00
2018-12-13T18:24:26.392Z,2.00
2018-12-13T18:26:55.214Z,2.00
2018-12-13T18:29:24.313Z,2.10
2018-12-13T18:31:53.229Z,2.00
2018-12-13T18:34:22.249Z,2.10
2018-12-13T18:36:50.997Z,2.00
2018-12-13T18:39:20.147Z,2.00
2018-12-13T18:41:48.911Z,2.10
2018-12-13T18:44:17.873Z,2.10
2018-12-13T18:46:49.188Z,2.00
2018-12-13T18:49:19.794Z,1.90
2018-12-13T18:51:58.377Z,1.90
2018-12-13T18:54:27.464Z,2.00
2018-12-13T18:56:58.509Z,1.90
2018-12-13T18:59:30.789Z,1.90
2018-12-13T19:02:10.340Z,1.90
2018-12-13T19:04:39.092Z,1.90
2018-12-13T19:07:12.721Z,1.80
2018-12-13T19:09:41.531Z,1.90
2018-12-13T19:12:12.048Z,1.90
2018-12-13T19:14:41.919Z,2.00
2018-12-13T19:17:10.793Z,2.00
2018-12-13T19:19:39.352Z,2.10
2018-12-13T19:22:07.878Z,2.10
2018-12-13T19:24:36.413Z,1.90
2018-12-13T19:27:05.048Z,1.90
2018-12-13T19:29:33.714Z,2.00
2018-12-13T19:32:02.225Z,1.90
2018-12-13T19:34:30.749Z,1.90
2018-12-13T19:36:59.447Z,1.90
2018-12-13T19:39:28.073Z,2.00
2018-12-13T19:41:56.638Z,1.90
2018-12-13T19:44:25.162Z,1.90
2018-12-13T19:46:53.770Z,1.90
2018-12-13T19:49:22.297Z,2.00
2018-12-13T19:51:51.186Z,2.00
2018-12-13T19:54:19.866Z,2.00
2018-12-13T19:56:48.491Z,2.00
2018-12-13T19:59:17.072Z,2.10
2018-12-13T20:01:45.624Z,2.00
2018-12-13T20:04:14.258Z,2.00
2018-12-13T20:06:42.839Z,2.00
2018-12-13T20:09:11.534Z,2.00
2018-12-13T20:11:40.111Z,1.90
2018-12-13T20:14:08.677Z,2.00
2018-12-13T20:16:37.288Z,2.00
2018-12-13T20:19:05.776Z,2.00
2018-12-13T20:21:34.399Z,2.00
2018-12-13T20:24:02.993Z,2.00
2018-12-13T20:26:31.985Z,2.00
2018-12-13T20:29:00.782Z,2.10
2018-12-13T20:31:29.465Z,2.10
2018-12-13T20:33:58.087Z,2.10
2018-12-13T20:36:26.767Z,2.00
2018-12-13T20:38:55.302Z,2.00
2018-12-13T20:41:23.857Z,2.00
2018-12-13T20:43:52.521Z,2.00
2018-12-13T20:46:21.024Z,2.00
2018-12-13T20:48:49.713Z,2.10
2018-12-13T20:51:18.361Z,2.10
2018-12-13T20:53:46.964Z,2.10
2018-12-13T20:56:15.563Z,2.10
2018-12-13T20:58:45.362Z,2.10
2018-12-13T21:01:14.037Z,2.10
2018-12-13T21:03:42.554Z,2.10
2018-12-13T21:06:11.940Z,2.00
2018-12-13T21:08:40.454Z,1.90
2018-12-13T21:11:09.034Z,1.90
2018-12-13T21:13:37.555Z,1.90
2018-12-13T21:16:06.100Z,2.00
2018-12-13T21:18:34.601Z,2.00
2018-12-13T21:21:06.087Z,2.00
2018-12-13T21:23:34.703Z,2.00
2018-12-13T21:26:03.367Z,2.10
2018-12-13T21:28:31.905Z,2.00
2018-12-13T21:31:00.433Z,1.90
2018-12-13T21:33:28.984Z,1.90
2018-12-13T21:35:57.610Z,1.90
2018-12-13T21:38:27.658Z,1.90
2018-12-13T21:40:56.442Z,1.80
2018-12-13T21:43:25.016Z,1.90
2018-12-13T21:45:53.587Z,2.00
2018-12-13T21:48:22.121Z,2.00
2018-12-13T21:50:50.651Z,2.00
2018-12-13T21:53:19.331Z,2.10
2018-12-13T21:56:01.006Z,2.00
2018-12-13T21:58:29.500Z,1.80
2018-12-13T22:00:57.991Z,1.70
2018-12-13T22:03:26.594Z,1.70
2018-12-13T22:06:01.737Z,1.70
2018-12-13T22:08:30.284Z,1.70
2018-12-13T22:10:58.787Z,1.80
2018-12-13T22:13:27.922Z,1.80
2018-12-13T22:15:56.449Z,1.80
2018-12-13T22:18:25.028Z,1.80
2018-12-13T22:20:53.536Z,1.80
2018-12-13T22:23:22.093Z,1.70
2018-12-13T22:25:50.593Z,1.80
2018-12-13T22:28:19.109Z,1.80
2018-12-13T22:30:47.743Z,1.80
2018-12-13T22:33:16.228Z,1.90
2018-12-13T22:35:45.019Z,2.00
2018-12-13T22:38:13.676Z,1.90
2018-12-13T22:40:42.213Z,1.90
2018-12-13T22:43:10.709Z,1.80
2018-12-13T22:45:45.515Z,1.80
2018-12-13T22:48:13.978Z,1.80
2018-12-13T22:50:42.446Z,1.80
2018-12-13T22:53:10.978Z,1.80
2018-12-13T22:55:39.477Z,1.90
2018-12-13T22:58:07.957Z,1.90
2018-12-13T23:00:42.298Z,1.90
2018-12-13T23:03:10.904Z,1.80
2018-12-13T23:05:39.382Z,1.70
2018-12-13T23:08:07.884Z,1.60
2018-12-13T23:10:36.408Z,1.60
2018-12-13T23:13:04.958Z,1.50
2018-12-13T23:15:33.578Z,1.40
2018-12-13T23:18:02.266Z,1.30
2018-12-13T23:20:30.777Z,1.30
2018-12-13T23:22:59.294Z,1.10
2018-12-13T23:25:27.812Z,1.10
2018-12-13T23:27:56.418Z,1.00
2018-12-13T23:30:24.938Z,1.10
2018-12-13T23:32:53.450Z,1.10
2018-12-13T23:35:21.945Z,1.20
2018-12-13T23:37:50.460Z,1.30
2018-12-13T23:40:18.946Z,1.20
2018-12-13T23:42:47.469Z,1.10
2018-12-13T23:45:16.012Z,1.10
2018-12-13T23:47:44.536Z,1.10
2018-12-13T23:50:13.155Z,1.00
2018-12-13T23:52:41.643Z,1.00
2018-12-13T23:55:10.109Z,1.00
2018-12-13T23:57:38.589Z,0.90
